ADDS METAR Data INFO
IDs: Format: Raw Decoded Include TAF

Data at: 1750 UTC 24 Mar 2017

METAR for:KCRP (Corpus Christi Intl, TX, US)
Text:KCRP 241651Z 16024G30KT 10SM SCT024 BKN031 BKN060 BKN250 26/21 A2996 RMK AO2 PK WND 16031/1633 SLP144 T02560206
Temperature: 25.6°C ( 78°F)
Dewpoint: 20.6°C ( 69°F) [RH = 74%]
Pressure (altimeter):29.96 inches Hg (1014.6 mb) [Sea level pressure: 1014.4 mb]
Winds:from the SSE (160 degrees) at 28 MPH (24 knots; 12.3 m/s) gusting to 34 MPH (30 knots; 15.4 m/s)
Visibility:10 or more sm (16+ km)
Ceiling:3100 feet AGL
Clouds: scattered clouds at 2400 feet AGL, broken clouds at 3100 feet AGL, broken clouds at 6000 feet AGL, broken clouds at 25000 feet AGL


Page loaded:  17:50 UTC  |   10:50 AM Pacific  |   11:50 AM Mountain  |   12:50 PM Central  |   01:50 PM Eastern

 

ADVISORIES

FORECASTS

FORECASTS

OBSERVATIONS

USER TOOLS

ABOUT US